createdAt,value
2019-04-03T00:49:00.748Z,10.25
2019-04-03T00:50:00.795Z,10.15
2019-04-03T00:51:00.677Z,10.25
2019-04-03T16:48:56.485Z,19.18
2019-04-03T16:49:55.937Z,19.24
2019-04-03T16:50:55.578Z,19.17
2019-04-03T16:51:55.810Z,19.20
2019-04-03T16:52:55.487Z,19.17
2019-04-03T16:53:55.162Z,19.17
2019-04-03T16:54:55.017Z,19.08
2019-04-03T16:55:55.062Z,19.06
2019-04-03T16:56:55.355Z,19.09
2019-04-03T16:57:55.606Z,19.05
2019-04-03T16:58:54.721Z,18.97
2019-04-03T16:59:54.681Z,18.95
2019-04-03T17:00:55.064Z,18.99
2019-04-03T17:01:54.595Z,18.97
2019-04-03T17:02:56.134Z,18.89
2019-04-03T17:03:54.784Z,18.90
2019-04-03T17:04:54.288Z,18.79
2019-04-03T17:05:54.336Z,18.92
2019-04-03T17:06:54.632Z,18.90
2019-04-03T17:07:54.933Z,18.83
2019-04-03T17:08:54.411Z,18.77
2019-04-03T17:09:54.050Z,18.69
2019-04-03T17:10:54.061Z,18.65
2019-04-03T17:11:53.859Z,18.67
2019-04-03T17:12:54.904Z,18.73
2019-04-03T17:13:54.318Z,18.79
2019-04-03T17:14:54.941Z,18.71
2019-04-03T17:15:53.701Z,18.74
2019-04-03T17:16:53.864Z,18.67
2019-04-03T17:17:53.664Z,18.67
2019-04-03T17:18:53.282Z,18.64
2019-04-03T17:19:53.287Z,18.65
2019-04-03T17:20:55.242Z,18.68
2019-04-03T17:21:53.097Z,18.65
2019-04-03T17:22:52.970Z,18.68
2019-04-03T17:23:53.516Z,18.53
2019-04-03T17:24:55.756Z,18.55
2019-04-03T17:25:52.828Z,18.53
2019-04-03T17:26:57.403Z,18.57
2019-04-03T17:27:56.907Z,18.35
2019-04-03T17:29:02.456Z,18.58
2019-04-03T17:29:52.764Z,18.47
2019-04-03T17:30:52.494Z,18.53
2019-04-03T17:31:52.344Z,18.58
2019-04-03T17:32:52.822Z,18.40
2019-04-03T17:33:52.334Z,18.53
2019-04-03T17:34:52.405Z,18.42
2019-04-03T17:35:52.193Z,18.35
2019-04-03T17:36:52.672Z,18.31
2019-04-03T17:37:51.885Z,18.34
2019-04-03T17:38:51.903Z,18.21
2019-04-03T17:39:52.416Z,18.22
2019-04-03T17:40:51.683Z,18.14
2019-04-03T17:41:51.591Z,18.09
2019-04-03T17:42:51.600Z,18.04
2019-04-03T17:43:51.430Z,18.06
2019-04-03T17:44:51.413Z,18.09
2019-04-03T17:45:51.283Z,18.09
2019-04-03T17:46:51.319Z,17.92
2019-04-03T17:47:53.939Z,18.07
2019-04-03T17:48:51.127Z,18.02
2019-04-03T17:49:50.994Z,17.94
2019-04-03T17:50:51.077Z,17.91
2019-04-03T17:51:50.859Z,17.96
2019-04-03T17:52:50.843Z,17.87
2019-04-03T17:53:50.717Z,17.82
2019-04-03T17:54:50.656Z,17.79
2019-04-03T17:55:50.551Z,17.58
2019-04-03T17:56:50.567Z,17.64
2019-04-03T17:57:50.408Z,17.26
2019-04-03T17:58:50.369Z,17.11
2019-04-03T17:59:50.262Z,17.17
2019-04-03T18:00:52.029Z,17.14
2019-04-03T18:01:50.611Z,17.14
2019-04-03T18:02:50.092Z,17.03
2019-04-03T18:03:50.172Z,17.05
2019-04-03T18:04:51.136Z,16.99
2019-04-03T18:05:49.813Z,16.98
2019-04-03T18:06:49.827Z,16.80
2019-04-03T18:07:49.664Z,16.88
2019-04-03T18:08:49.596Z,16.89
2019-04-03T18:09:49.514Z,16.99
2019-04-03T18:10:49.539Z,16.98
2019-04-03T18:11:49.381Z,16.93
2019-04-03T18:12:50.208Z,16.98
2019-04-03T18:13:49.226Z,16.99
2019-04-03T18:14:49.247Z,16.99
2019-04-03T18:15:49.080Z,16.95
2019-04-03T18:16:49.003Z,16.82
2019-04-03T18:17:48.959Z,16.85
2019-04-03T18:18:50.026Z,16.77
2019-04-03T18:19:48.878Z,16.73
2019-04-03T18:20:48.717Z,16.59
2019-04-03T18:21:49.437Z,16.48
2019-04-03T18:22:50.346Z,16.41
2019-04-03T18:23:48.595Z,16.35
2019-04-03T18:24:48.414Z,16.12
2019-04-03T18:25:48.405Z,16.01
2019-04-03T18:26:48.268Z,15.81
2019-04-03T18:27:48.210Z,15.60
2019-04-03T18:28:48.110Z,15.52
2019-04-03T18:29:48.207Z,15.27
2019-04-03T18:30:48.028Z,15.06
2019-04-03T18:31:47.930Z,14.85
2019-04-03T18:32:47.812Z,14.68
2019-04-03T18:33:48.835Z,14.52
2019-04-03T18:34:50.960Z,14.41
2019-04-03T18:35:47.587Z,14.21
2019-04-03T18:36:47.523Z,14.10
2019-04-03T18:37:47.437Z,13.99
2019-04-03T18:38:47.568Z,13.98
2019-04-03T18:39:47.284Z,13.99
2019-04-03T18:40:47.277Z,13.94
2019-04-03T18:41:47.737Z,13.80
2019-04-03T18:42:49.384Z,13.70
2019-04-03T18:43:46.986Z,13.74
2019-04-03T18:44:46.994Z,13.65
2019-04-03T18:45:46.843Z,13.58
2019-04-03T18:46:48.787Z,13.40
2019-04-03T18:47:46.812Z,13.22
2019-04-03T18:48:53.605Z,13.15
2019-04-03T18:49:46.546Z,12.97
2019-04-03T18:50:46.594Z,12.89
2019-04-03T18:51:46.399Z,12.84
2019-04-03T18:52:46.330Z,12.70
2019-04-03T18:53:46.224Z,12.66
2019-04-03T18:54:46.148Z,12.60
2019-04-03T18:55:46.143Z,12.53
2019-04-03T18:56:46.599Z,12.49
2019-04-03T18:57:45.958Z,12.46
2019-04-03T18:58:45.853Z,12.49
2019-04-03T18:59:45.865Z,12.39
2019-04-03T19:00:45.694Z,12.39
2019-04-03T19:01:45.671Z,12.31
2019-04-03T19:02:45.539Z,12.28
2019-04-03T19:03:45.481Z,12.21
2019-04-03T19:04:45.389Z,12.08
2019-04-03T19:05:45.403Z,11.95
2019-04-03T19:06:45.322Z,11.97
2019-04-03T19:07:46.636Z,11.87
2019-04-03T19:08:45.092Z,11.90
2019-04-03T19:09:45.112Z,11.75
2019-04-03T19:10:44.929Z,11.61
2019-04-03T19:11:44.927Z,11.51
2019-04-03T19:12:44.795Z,11.49
2019-04-03T19:13:47.479Z,11.53
2019-04-03T19:14:44.662Z,11.47
2019-04-03T19:15:44.541Z,11.51
2019-04-03T19:16:47.919Z,11.42
2019-04-03T19:17:44.384Z,11.38
2019-04-03T19:18:44.368Z,11.29
2019-04-03T19:19:44.226Z,11.31
2019-04-03T19:20:44.287Z,11.16
2019-04-03T19:21:44.079Z,11.20
2019-04-03T19:22:44.074Z,11.11
2019-04-03T19:23:49.661Z,11.00
2019-04-03T19:24:43.889Z,11.00
2019-04-03T19:25:43.769Z,10.84
2019-04-03T19:26:43.791Z,10.78
2019-04-03T19:27:43.624Z,10.87
2019-04-03T19:28:44.541Z,10.88
2019-04-03T19:29:43.452Z,10.88
2019-04-03T19:30:43.439Z,10.88
2019-04-03T19:31:43.302Z,10.80
2019-04-03T19:32:44.024Z,10.77
2019-04-03T19:33:45.382Z,10.91
2019-04-03T19:34:43.162Z,10.75
2019-04-03T19:35:43.038Z,10.63
2019-04-03T19:36:43.252Z,10.73
2019-04-03T19:37:45.158Z,10.69
2019-04-03T19:38:42.874Z,10.62
2019-04-03T19:39:42.679Z,10.55
2019-04-03T19:40:42.654Z,10.55
2019-04-03T19:41:42.739Z,10.41
2019-04-03T19:42:43.885Z,10.40
2019-04-03T19:43:44.045Z,10.26
2019-04-03T19:44:42.374Z,10.25
2019-04-03T19:45:42.208Z,10.21
2019-04-03T19:46:42.184Z,10.18
2019-04-03T19:47:42.053Z,10.06
2019-04-03T19:48:41.999Z,10.08
2019-04-03T19:49:41.900Z,10.07
2019-04-03T19:50:41.920Z,10.07
2019-04-03T19:51:41.740Z,9.90
2019-04-03T19:52:42.391Z,9.93
2019-04-03T19:53:44.364Z,9.86
2019-04-03T19:54:41.528Z,9.93
2019-04-03T19:55:41.427Z,9.85
2019-04-03T19:56:41.461Z,9.80
2019-04-03T19:57:41.292Z,9.70
2019-04-03T19:58:41.222Z,9.68
2019-04-03T19:59:41.114Z,9.67
2019-04-03T20:00:41.056Z,9.61
2019-04-03T20:01:40.955Z,9.63
2019-04-03T20:02:43.041Z,9.58
2019-04-03T20:03:40.799Z,9.64
2019-04-03T20:04:41.802Z,9.71
2019-04-03T20:05:40.646Z,9.67
2019-04-03T20:06:40.580Z,9.60
2019-04-03T20:07:40.483Z,9.68
2019-04-03T20:08:40.495Z,9.67
2019-04-03T20:09:40.326Z,9.74
2019-04-03T20:10:40.302Z,9.65
2019-04-03T20:11:40.179Z,9.71
2019-04-03T20:12:40.113Z,9.65
2019-04-03T20:13:40.408Z,9.70
2019-04-03T20:14:42.177Z,9.68
2019-04-03T20:15:39.894Z,9.61
2019-04-03T20:16:39.822Z,9.49
2019-04-03T20:17:39.704Z,9.52
2019-04-03T20:18:39.636Z,9.50
2019-04-03T20:19:39.562Z,9.52
2019-04-03T20:20:40.579Z,9.49
2019-04-03T20:21:39.377Z,9.40
2019-04-03T20:22:42.267Z,9.37
2019-04-03T20:23:41.601Z,9.38
2019-04-03T20:24:39.168Z,9.40
2019-04-03T20:25:39.072Z,9.45
2019-04-03T20:26:39.077Z,9.42
2019-04-03T20:27:38.974Z,9.42
2019-04-03T20:28:38.890Z,9.43
2019-04-03T20:29:38.757Z,9.40
2019-04-03T20:30:38.695Z,9.34
2019-04-03T20:31:40.770Z,9.34
2019-04-03T20:32:40.833Z,9.31
2019-04-03T20:33:38.434Z,9.20
2019-04-03T20:34:38.364Z,9.31
2019-04-03T20:35:38.276Z,9.24
2019-04-03T20:36:38.220Z,9.13
2019-04-03T20:37:38.147Z,9.19
2019-04-03T20:38:38.144Z,9.17
2019-04-03T20:39:37.962Z,9.17
2019-04-03T20:40:39.789Z,9.24
2019-04-03T20:41:37.817Z,9.19
2019-04-03T20:42:40.749Z,9.16
2019-04-03T20:43:37.657Z,9.17
2019-04-03T20:44:39.005Z,9.22
2019-04-03T20:45:37.492Z,9.13
2019-04-03T20:46:37.479Z,9.13
2019-04-03T20:47:37.335Z,9.03
2019-04-03T20:48:37.264Z,9.05
2019-04-03T20:49:37.298Z,9.05
2019-04-03T20:50:38.077Z,9.02
2019-04-03T20:51:37.998Z,8.97
2019-04-03T20:52:36.936Z,9.00
2019-04-03T20:53:36.903Z,8.93
2019-04-03T20:54:36.778Z,8.91
2019-04-03T20:55:36.823Z,8.93
2019-04-03T20:56:36.612Z,8.90
2019-04-03T20:57:36.623Z,8.91
2019-04-03T20:58:39.970Z,9.02
2019-04-03T20:59:36.433Z,8.93
2019-04-03T21:00:36.305Z,9.00
2019-04-03T21:01:36.235Z,9.00
2019-04-03T21:02:36.143Z,8.94
2019-04-03T21:03:36.152Z,8.88
2019-04-03T21:04:35.987Z,8.88
2019-04-03T21:05:35.921Z,8.82
2019-04-03T21:06:37.244Z,8.84
2019-04-03T21:07:35.774Z,8.82
2019-04-03T21:08:35.663Z,8.82
2019-04-03T21:09:35.606Z,8.79
2019-04-03T21:10:35.514Z,8.72
2019-04-03T21:11:35.510Z,8.73
2019-04-03T21:12:35.836Z,8.76
2019-04-03T21:13:35.301Z,8.69
2019-04-03T21:14:35.187Z,8.66
2019-04-03T21:15:35.219Z,8.66
2019-04-03T21:16:35.040Z,8.61
2019-04-03T21:17:35.022Z,8.65
2019-04-03T21:18:34.877Z,8.60
2019-04-03T21:19:34.840Z,8.65
2019-04-03T21:20:34.710Z,8.65
2019-04-03T21:21:34.742Z,8.66
2019-04-03T21:22:34.554Z,8.65
2019-04-03T21:23:34.561Z,8.68
2019-04-03T21:24:34.988Z,8.62
2019-04-03T21:25:35.954Z,8.65
2019-04-03T21:26:34.233Z,8.62
2019-04-03T21:27:34.273Z,8.68
2019-04-03T21:28:34.082Z,8.66
2019-04-03T21:29:34.069Z,8.55
2019-04-03T21:30:33.939Z,8.52
2019-04-03T21:31:33.891Z,8.54
2019-04-03T21:32:33.766Z,8.52
2019-04-03T21:33:33.806Z,8.48
2019-04-03T21:34:33.608Z,8.52
2019-04-03T21:35:35.256Z,8.42
2019-04-03T21:36:33.445Z,8.43
2019-04-03T21:37:33.410Z,8.40
2019-04-03T21:38:33.285Z,8.44
2019-04-03T21:39:33.961Z,8.40
2019-04-03T21:40:33.129Z,8.37
2019-04-03T21:41:33.127Z,8.47
2019-04-03T21:42:32.984Z,8.47
2019-04-03T21:43:32.935Z,8.52
2019-04-03T21:44:32.825Z,8.52
2019-04-03T21:45:32.847Z,8.54
2019-04-03T21:46:32.660Z,8.58
2019-04-03T21:47:32.658Z,8.54
2019-04-03T21:48:32.490Z,8.52
2019-04-03T21:49:32.466Z,8.52
2019-04-03T21:50:32.337Z,8.55
2019-04-03T21:51:32.277Z,8.62
2019-04-03T21:52:32.193Z,8.62
2019-04-03T21:53:32.186Z,8.55
2019-04-03T21:54:32.015Z,8.51
2019-04-03T21:55:34.613Z,8.61
2019-04-03T21:56:32.711Z,8.55
2019-04-03T21:57:31.802Z,8.51
2019-04-03T21:58:31.698Z,8.52
2019-04-03T21:59:31.710Z,8.55
2019-04-03T22:00:31.533Z,8.58
2019-04-03T22:01:31.518Z,8.48
2019-04-03T22:02:31.393Z,8.48
2019-04-03T22:03:31.346Z,8.52
2019-04-03T22:04:31.216Z,8.50
2019-04-03T22:05:31.250Z,8.51
2019-04-03T22:06:31.077Z,8.54
2019-04-03T22:07:30.994Z,8.48
2019-04-03T22:08:30.902Z,8.44
2019-04-03T22:09:31.266Z,8.48
2019-04-03T22:10:32.656Z,8.30
2019-04-03T22:11:30.769Z,8.19
2019-04-03T22:12:30.584Z,8.22
2019-04-03T22:13:30.588Z,8.24
2019-04-03T22:14:30.435Z,8.30
2019-04-03T22:15:30.386Z,8.24
2019-04-03T22:16:30.284Z,8.22
2019-04-03T22:17:30.300Z,8.27
2019-04-03T22:18:30.116Z,8.19
2019-04-03T22:19:30.107Z,8.21
2019-04-03T22:20:30.113Z,8.18
2019-04-03T22:21:32.171Z,8.07
2019-04-03T22:22:29.792Z,8.07
2019-04-03T22:23:29.818Z,8.21
2019-04-03T22:24:29.628Z,8.21
2019-04-03T22:25:29.557Z,8.24
2019-04-03T22:26:29.462Z,8.21
2019-04-03T22:27:29.443Z,8.25
2019-04-03T22:28:29.316Z,8.21
2019-04-03T22:29:29.289Z,8.24
2019-04-03T22:30:29.148Z,8.33
2019-04-03T22:31:29.167Z,8.30
2019-04-03T22:32:28.986Z,8.32
2019-04-03T22:33:28.970Z,8.30
2019-04-03T22:34:29.903Z,8.27
2019-04-03T22:35:30.123Z,8.24
2019-04-03T22:36:28.671Z,8.39
2019-04-03T22:37:28.692Z,8.29
2019-04-03T22:38:28.512Z,8.39
2019-04-03T22:39:28.498Z,8.36
2019-04-03T22:40:28.360Z,8.34
2019-04-03T22:41:28.275Z,8.32
2019-04-03T22:42:28.198Z,8.32
2019-04-03T22:43:28.124Z,8.33
2019-04-03T22:44:28.033Z,8.36
2019-04-03T22:45:27.974Z,8.36
2019-04-03T22:46:27.878Z,8.33
2019-04-03T22:47:27.837Z,8.32
2019-04-03T22:48:27.812Z,8.40
2019-04-03T22:49:27.742Z,8.29
2019-04-03T22:50:27.556Z,8.25
2019-04-03T22:51:27.551Z,8.21
2019-04-03T22:52:27.399Z,8.25
2019-04-03T22:53:27.361Z,8.21
2019-04-03T22:54:27.241Z,8.25
2019-04-03T22:55:27.267Z,8.25
2019-04-03T22:56:27.073Z,8.18
2019-04-03T22:57:27.002Z,8.21
2019-04-03T22:58:26.913Z,8.19
2019-04-03T22:59:26.890Z,8.12
2019-04-03T23:00:26.773Z,8.25
2019-04-03T23:01:29.565Z,8.06
2019-04-03T23:02:27.706Z,8.01
2019-04-03T23:03:26.525Z,8.11
2019-04-03T23:04:27.499Z,8.03
2019-04-03T23:05:26.366Z,8.06
2019-04-03T23:06:26.413Z,8.07
2019-04-03T23:07:26.200Z,8.03
2019-04-03T23:08:26.208Z,8.09
2019-04-03T23:09:26.040Z,8.04
2019-04-03T23:10:26.018Z,8.01
2019-04-03T23:11:25.876Z,7.99
2019-04-03T23:12:25.921Z,7.93
2019-04-03T23:13:25.718Z,7.99
2019-04-03T23:14:25.748Z,7.93
2019-04-03T23:15:25.561Z,7.88
2019-04-03T23:16:25.542Z,7.85
2019-04-03T23:17:25.402Z,7.88
2019-04-03T23:18:25.349Z,7.88
2019-04-03T23:19:25.285Z,7.90
2019-04-03T23:20:26.284Z,7.88
2019-04-03T23:21:25.080Z,7.93
2019-04-03T23:22:25.929Z,7.96
2019-04-03T23:23:27.050Z,7.88
2019-04-03T23:24:24.880Z,7.90
2019-04-03T23:25:24.776Z,7.88
2019-04-03T23:26:24.787Z,7.86
2019-04-03T23:27:24.606Z,7.91
2019-04-03T23:28:24.601Z,7.86
2019-04-03T23:29:24.448Z,7.85
2019-04-03T23:30:24.408Z,7.88
2019-04-03T23:31:24.292Z,7.91
2019-04-03T23:32:24.325Z,7.86
2019-04-03T23:33:24.124Z,7.90
2019-04-03T23:34:24.133Z,7.90
2019-04-03T23:35:23.964Z,7.91
2019-04-03T23:36:23.929Z,7.88
2019-04-03T23:37:24.888Z,7.85
2019-04-03T23:38:24.829Z,7.94
2019-04-03T23:39:23.644Z,7.82
2019-04-03T23:40:23.655Z,7.78
2019-04-03T23:41:23.483Z,7.78
2019-04-03T23:42:23.467Z,7.81
2019-04-03T23:43:23.359Z,7.63
2019-04-03T23:44:23.295Z,7.78
2019-04-03T23:45:23.186Z,7.81
2019-04-03T23:46:23.094Z,7.79
2019-04-03T23:47:23.013Z,7.82
2019-04-03T23:48:22.996Z,7.79
2019-04-03T23:49:22.853Z,7.83
2019-04-03T23:50:22.807Z,7.78
2019-04-03T23:51:23.738Z,7.85
2019-04-03T23:52:22.721Z,7.85
2019-04-03T23:53:22.530Z,7.70
2019-04-03T23:54:22.524Z,7.72
2019-04-03T23:55:22.375Z,7.72
2019-04-03T23:56:22.336Z,7.70
2019-04-03T23:57:22.206Z,7.70
2019-04-03T23:58:22.254Z,7.68
2019-04-03T23:59:22.045Z,7.73
